Terri L. Brusco — WDC3034 — position and weather

sailwx.info

Track history (hours):
 
Tides and Currents Weather Stations Pressure Air Temp Water Temp Dewpoint Dewpoint Depression Visibility Wind Speed Wind Dir Waves Ship Positions

Terri L. Brusco

Owner: Brusco Tug & Barge, Inc., Longview, WA. More information available from US FCC via Universal Licensing System and Coast Guard Vessel Documentation Center.

Last reported at 2018-Jan-01 11:48 UTC. Time now 2018-Feb-24 00:18 UTC.
Position N 46°12' W 123°23'.
Warning: this ship's position is 53 days out of date.

Length 21 m; draft 4 m.

Type: Tow > 200 m length. MMSI: 367001830.

Date/timePositionNaut miles runAvg speedWind from/ knotsBaromVisibWave heightAir tempDewpointWater temp
2018-Jan-01 11:48N 46°12' W 123°23'0 0.0
2018-Jan-01 11:30N 46°12' W 123°23'0 0.0
2018-Jan-01 11:01N 46°12' W 123°23'0 0.0
2018-Jan-01 10:30N 46°12' W 123°23'0 0.0
2018-Jan-01 10:01N 46°12' W 123°23'0 0.0
2018-Jan-01 09:30N 46°12' W 123°23'0 0.0
2018-Jan-01 08:31N 46°12' W 123°23'4 7.0
2018-Jan-01 08:01N 46°15' W 123°26'5 9.9
2018-Jan-01 07:30N 46°15' W 123°33'611.5
2018-Jan-01 07:01N 46°15' W 123°42'1111.2
2018-Jan-01 06:01N 46°13' W 123°58'611.1
2018-Jan-01 05:31N 46°15' W 124°05'510.9
2018-Jan-01 05:01N 46°10' W 124°09'1111.1
2018-Jan-01 04:01N 45°59' W 124°08'611.7
2018-Jan-01 03:30N 45°53' W 124°07'811.3
2018-Jan-01 02:45N 45°45' W 124°06'311.5
2018-Jan-01 02:30N 45°42' W 124°05'611.8
2018-Jan-01 02:01N 45°36' W 124°04'611.4
2018-Jan-01 01:30N 45°31' W 124°04'1111.1
2018-Jan-01 00:30N 45°19' W 124°05'39510.4
2017-Dec-30 10:23N 38°45' W 123°42'410.9
2017-Dec-30 10:00N 38°41' W 123°39'511.0
2017-Dec-30 09:30N 38°37' W 123°36'510.7
2017-Dec-30 09:00N 38°32' W 123°32'510.6
2017-Dec-30 08:31N 38°28' W 123°28'510.0
2017-Dec-30 08:00N 38°24' W 123°25'510.6
2017-Dec-30 07:30N 38°19' W 123°21'510.5
2017-Dec-30 07:00N 38°15' W 123°18'510.3
2017-Dec-30 06:30N 38°10' W 123°14'510.3
2017-Dec-30 06:00N 38°06' W 123°11'510.2
2017-Dec-30 05:30N 38°01' W 123°07'510.7
2017-Dec-30 05:00N 37°57' W 123°03'611.1
2017-Dec-30 04:31N 37°54' W 122°57'611.1
2017-Dec-30 03:57N 37°51' W 122°51'510.9
2017-Dec-30 03:30N 37°49' W 122°45'611.2
2017-Dec-30 03:01N 37°47' W 122°38'5 9.9
2017-Dec-30 02:31N 37°48' W 122°32'5 9.5
2017-Dec-30 02:00N 37°51' W 122°27'510.1
2017-Dec-30 01:31N 37°56' W 122°27'610.7
2017-Dec-30 00:58N 38°01' W 122°23'612.6
2017-Dec-30 00:27N 38°04' W 122°16'612.8
2017-Dec-30 00:01N 38°02' W 122°09'  
Track history (hours):
 
Tides and Currents Weather Stations Pressure Air Temp Water Temp Dewpoint Dewpoint Depression Visibility Wind Speed Wind Dir Waves Ship Positions

Terri L. Brusco

Owner: Brusco Tug & Barge, Inc., Longview, WA. More information available from US FCC via Universal Licensing System and Coast Guard Vessel Documentation Center.

Last reported at 2018-Jan-01 11:48 UTC. Time now 2018-Feb-24 00:18 UTC.
Position N 46°12' W 123°23'.
Warning: this ship's position is 53 days out of date.

Length 21 m; draft 4 m.

Type: Tow > 200 m length. MMSI: 367001830.

Date/timePositionNaut miles runAvg speedWind from/ knotsBaromVisibWave heightAir tempDewpointWater temp
2018-Jan-01 11:48N 46°12' W 123°23'0 0.0
2018-Jan-01 11:30N 46°12' W 123°23'0 0.0
2018-Jan-01 11:01N 46°12' W 123°23'0 0.0
2018-Jan-01 10:30N 46°12' W 123°23'0 0.0
2018-Jan-01 10:01N 46°12' W 123°23'0 0.0
2018-Jan-01 09:30N 46°12' W 123°23'0 0.0
2018-Jan-01 08:31N 46°12' W 123°23'4 7.0
2018-Jan-01 08:01N 46°15' W 123°26'5 9.9
2018-Jan-01 07:30N 46°15' W 123°33'611.5
2018-Jan-01 07:01N 46°15' W 123°42'1111.2
2018-Jan-01 06:01N 46°13' W 123°58'611.1
2018-Jan-01 05:31N 46°15' W 124°05'510.9
2018-Jan-01 05:01N 46°10' W 124°09'1111.1
2018-Jan-01 04:01N 45°59' W 124°08'611.7
2018-Jan-01 03:30N 45°53' W 124°07'811.3
2018-Jan-01 02:45N 45°45' W 124°06'311.5
2018-Jan-01 02:30N 45°42' W 124°05'611.8
2018-Jan-01 02:01N 45°36' W 124°04'611.4
2018-Jan-01 01:30N 45°31' W 124°04'1111.1
2018-Jan-01 00:30N 45°19' W 124°05'39510.4
2017-Dec-30 10:23N 38°45' W 123°42'410.9
2017-Dec-30 10:00N 38°41' W 123°39'511.0
2017-Dec-30 09:30N 38°37' W 123°36'510.7
2017-Dec-30 09:00N 38°32' W 123°32'510.6
2017-Dec-30 08:31N 38°28' W 123°28'510.0
2017-Dec-30 08:00N 38°24' W 123°25'510.6
2017-Dec-30 07:30N 38°19' W 123°21'510.5
2017-Dec-30 07:00N 38°15' W 123°18'510.3
2017-Dec-30 06:30N 38°10' W 123°14'510.3
2017-Dec-30 06:00N 38°06' W 123°11'510.2
2017-Dec-30 05:30N 38°01' W 123°07'510.7
2017-Dec-30 05:00N 37°57' W 123°03'611.1
2017-Dec-30 04:31N 37°54' W 122°57'611.1
2017-Dec-30 03:57N 37°51' W 122°51'510.9
2017-Dec-30 03:30N 37°49' W 122°45'611.2
2017-Dec-30 03:01N 37°47' W 122°38'5 9.9
2017-Dec-30 02:31N 37°48' W 122°32'5 9.5
2017-Dec-30 02:00N 37°51' W 122°27'510.1
2017-Dec-30 01:31N 37°56' W 122°27'610.7
2017-Dec-30 00:58N 38°01' W 122°23'612.6
2017-Dec-30 00:27N 38°04' W 122°16'612.8
2017-Dec-30 00:01N 38°02' W 122°09'  

Dump ship's entire track history